Time;durP1;ratioP1;P1;durP2;ratioP2;P2;SDS_P1;SDS_P2;PMS_P1;PMS_P2;Temp;Humidity;BMP_temperature;BMP_pressure;BME280_temperature;BME280_humidity;BME280_pressure;Samples;Min_cycle;Max_cycle;Signal;HPM_P1;HPM_P2
2023/04/25 00:02:12;;;;;;;6.70;2.97;;;;;;;13.00;85.53;94290.53;5031625;28;20239;-63
2023/04/25 00:04:38;;;;;;;3.15;2.80;;;;;;;12.80;85.64;94279.72;5032743;28;20242;-64
2023/04/25 00:07:06;;;;;;;4.80;2.65;;;;;;;12.69;84.74;94269.25;5027397;28;20701;-63
2023/04/25 00:09:34;;;;;;;5.22;2.28;;;;;;;12.68;85.18;94259.16;5031193;28;20366;-63
2023/04/25 00:12:01;;;;;;;3.97;2.75;;;;;;;12.68;85.60;94254.88;5020101;28;20231;-64
2023/04/25 00:14:28;;;;;;;4.97;2.53;;;;;;;12.82;86.35;94249.03;5032315;28;20211;-65
2023/04/25 00:16:55;;;;;;;2.88;2.67;;;;;;;13.04;86.45;94243.56;5029240;28;20195;-65
2023/04/25 00:19:21;;;;;;;3.67;3.10;;;;;;;12.94;85.57;94248.34;5029231;28;20200;-63
2023/04/25 00:21:48;;;;;;;7.82;3.35;;;;;;;12.84;86.16;94253.16;5031821;28;20234;-64
2023/04/25 00:24:15;;;;;;;3.30;3.10;;;;;;;12.86;86.24;94253.91;5024081;28;20283;-64
2023/04/25 00:26:43;;;;;;;4.00;3.60;;;;;;;12.89;86.59;94251.16;5031097;28;20332;-63
2023/04/25 00:29:10;;;;;;;4.20;3.35;;;;;;;12.92;86.66;94252.72;5031808;28;20235;-64
2023/04/25 00:31:36;;;;;;;4.28;3.92;;;;;;;13.01;87.20;94247.09;5013880;28;20236;-64
2023/04/25 00:34:03;;;;;;;7.22;4.22;;;;;;;13.07;87.10;94253.59;5013093;28;20200;-63
2023/04/25 00:36:30;;;;;;;4.03;3.45;;;;;;;13.15;87.96;94261.63;5016387;28;20224;-63
2023/04/25 00:38:57;;;;;;;4.35;3.75;;;;;;;13.44;89.12;94257.44;5019862;28;20568;-64
2023/04/25 00:41:25;;;;;;;5.43;3.47;;;;;;;13.44;88.15;94249.78;5014375;28;20297;-65
2023/04/25 00:43:54;;;;;;;3.80;3.50;;;;;;;13.36;88.41;94255.38;5013004;28;20583;-62
2023/04/25 00:46:21;;;;;;;3.63;3.42;;;;;;;13.17;88.46;94265.75;5013698;28;20255;-66
2023/04/25 00:48:47;;;;;;;5.47;3.50;;;;;;;13.21;87.18;94251.94;5013158;28;20236;-63
2023/04/25 00:51:19;;;;;;;4.07;3.63;;;;;;;13.39;86.81;94250.06;5014339;28;20263;-63
2023/04/25 00:53:47;;;;;;;4.38;3.60;;;;;;;13.33;87.13;94247.06;5013963;28;20620;-63
2023/04/25 00:56:14;;;;;;;6.45;3.75;;;;;;;13.05;86.96;94250.31;5020242;28;20206;-64
2023/04/25 00:58:42;;;;;;;3.40;3.17;;;;;;;13.05;86.50;94247.75;5026276;28;20227;-65
2023/04/25 01:01:11;;;;;;;3.92;3.63;;;;;;;13.15;86.08;94253.97;5031114;28;20664;-64
2023/04/25 01:03:41;;;;;;;3.20;3.00;;;;;;;13.17;85.90;94235.16;5031047;28;20239;-64
2023/04/25 01:06:09;;;;;;;2.92;2.75;;;;;;;12.89;84.43;94233.28;5031111;28;20219;-62
2023/04/25 01:08:36;;;;;;;2.60;2.40;;;;;;;12.90;83.71;94232.38;5023134;28;20331;-64
2023/04/25 01:11:03;;;;;;;3.60;3.17;;;;;;;13.04;84.61;94229.09;5027222;28;20234;-63
2023/04/25 01:13:31;;;;;;;5.88;3.47;;;;;;;13.13;85.64;94228.53;5031065;28;20208;-65
2023/04/25 01:15:58;;;;;;;3.45;3.25;;;;;;;13.15;85.62;94218.25;5031003;28;20210;-63
2023/04/25 01:18:26;;;;;;;6.25;3.55;;;;;;;13.30;86.13;94217.44;5016521;28;20232;-65
2023/04/25 01:20:54;;;;;;;4.32;4.03;;;;;;;13.34;86.35;94211.25;5012596;28;20240;-65
2023/04/25 01:23:23;;;;;;;4.18;3.92;;;;;;;13.15;86.75;94210.59;5014282;28;20232;-63
2023/04/25 01:25:50;;;;;;;4.90;4.50;;;;;;;13.02;87.28;94217.31;5014714;28;20701;-63
2023/04/25 01:28:17;;;;;;;5.40;4.90;;;;;;;12.88;87.85;94213.81;5018554;28;20269;-63
2023/04/25 01:30:44;;;;;;;6.32;5.72;;;;;;;12.78;88.51;94216.97;5019441;28;20232;-63
2023/04/25 01:33:12;;;;;;;5.70;5.30;;;;;;;12.73;89.16;94217.22;5023356;28;20239;-64
2023/04/25 01:35:40;;;;;;;5.05;4.75;;;;;;;12.78;89.13;94209.31;5030650;28;20204;-62
2023/04/25 01:38:07;;;;;;;5.78;5.38;;;;;;;12.72;89.90;94213.03;5020207;28;20235;-63
2023/04/25 01:40:39;;;;;;;7.57;6.20;;;;;;;12.52;89.66;94196.28;5030443;28;20216;-62
2023/04/25 01:43:08;;;;;;;5.68;5.25;;;;;;;12.64;90.28;94204.97;5024298;28;20208;-62
2023/04/25 01:45:36;;;;;;;7.40;6.70;;;;;;;12.61;90.09;94200.06;5022264;28;20216;-60
2023/04/25 01:48:03;;;;;;;6.32;5.93;;;;;;;12.54;90.38;94207.22;5029273;28;20220;-62
2023/04/25 01:50:30;;;;;;;6.60;6.10;;;;;;;12.44;91.03;94217.97;5023944;28;20865;-63
2023/04/25 01:52:57;;;;;;;6.80;6.30;;;;;;;12.40;91.53;94216.50;5030517;28;20211;-64
2023/04/25 01:55:24;;;;;;;7.55;6.95;;;;;;;12.57;91.18;94218.97;5029738;28;20239;-64
2023/04/25 01:57:52;;;;;;;6.65;6.18;;;;;;;12.49;91.63;94210.91;5024286;28;20670;-63
2023/04/25 02:00:20;;;;;;;7.30;6.70;;;;;;;12.65;90.34;94223.63;5029340;28;20243;-63
2023/04/25 02:02:47;;;;;;;7.15;6.55;;;;;;;12.67;89.43;94217.53;5025940;28;20203;-64
2023/04/25 02:05:13;;;;;;;6.55;5.95;;;;;;;12.52;90.31;94220.94;5015256;28;20239;-62
2023/04/25 02:07:40;;;;;;;6.57;5.97;;;;;;;12.40;90.56;94221.59;5024792;28;20267;-64
2023/04/25 02:10:08;;;;;;;6.43;5.90;;;;;;;12.17;91.09;94210.91;5013584;28;20690;-63
2023/04/25 02:12:34;;;;;;;6.88;6.28;;;;;;;12.26;91.19;94215.53;5011705;28;20748;-62
2023/04/25 02:15:02;;;;;;;5.95;5.35;;;;;;;12.40;91.17;94211.41;5015702;28;20289;-63
2023/04/25 02:17:31;;;;;;;5.35;5.05;;;;;;;12.52;90.33;94208.19;5029686;28;20242;-62
2023/04/25 02:19:58;;;;;;;5.20;4.80;;;;;;;12.63;89.18;94198.22;5019005;28;20206;-63
2023/04/25 02:22:25;;;;;;;5.18;4.85;;;;;;;12.46;89.33;94193.25;5022798;28;20239;-63
2023/04/25 02:24:51;;;;;;;4.45;4.18;;;;;;;12.50;88.99;94193.00;5029317;28;20218;-64
2023/04/25 02:27:18;;;;;;;4.50;4.30;;;;;;;12.39;89.95;94189.38;5029744;28;20254;-63
2023/04/25 02:29:44;;;;;;;5.07;4.63;;;;;;;12.33;90.77;94188.00;5021727;28;20258;-63
2023/04/25 02:32:12;;;;;;;6.18;5.60;;;;;;;12.17;91.34;94175.25;5029670;28;20231;-63
2023/04/25 02:34:39;;;;;;;6.55;5.63;;;;;;;12.21;91.91;94169.09;5017851;28;20713;-63
2023/04/25 02:37:06;;;;;;;6.85;6.25;;;;;;;12.14;91.88;94172.88;5010264;28;20718;-63
2023/04/25 02:39:33;;;;;;;6.03;5.55;;;;;;;12.03;92.58;94165.00;5010063;28;20239;-63
2023/04/25 02:42:00;;;;;;;6.30;5.90;;;;;;;12.14;92.75;94170.31;5011259;28;20279;-63
2023/04/25 02:44:27;;;;;;;6.35;5.90;;;;;;;11.97;92.38;94170.41;5010485;28;20215;-64
2023/04/25 02:46:54;;;;;;;5.93;5.53;;;;;;;11.98;92.70;94178.88;5010870;28;20259;-63
2023/04/25 02:49:22;;;;;;;6.15;5.57;;;;;;;11.98;93.06;94159.31;5012816;28;20716;-64
2023/04/25 02:51:48;;;;;;;6.65;5.70;;;;;;;11.88;93.47;94153.06;5016984;28;20227;-63
2023/04/25 02:54:15;;;;;;;7.13;6.57;;;;;;;12.02;92.89;94155.72;5030049;28;20235;-64
2023/04/25 02:56:42;;;;;;;7.03;6.47;;;;;;;11.85;93.44;94163.44;5022455;28;20232;-63
2023/04/25 02:59:08;;;;;;;7.78;7.18;;;;;;;11.80;93.98;94166.22;5015241;28;20637;-62
2023/04/25 03:01:35;;;;;;;6.82;6.32;;;;;;;11.75;94.40;94162.22;5023285;28;20238;-64
2023/04/25 03:04:02;;;;;;;7.88;7.07;;;;;;;11.79;94.53;94159.47;5012354;28;20282;-61
2023/04/25 03:06:30;;;;;;;8.05;7.47;;;;;;;11.96;93.06;94156.03;5017911;28;20584;-64
2023/04/25 03:08:57;;;;;;;7.68;7.00;;;;;;;11.84;93.31;94156.69;5022903;28;20258;-63
2023/04/25 03:11:25;;;;;;;7.88;7.28;;;;;;;11.74;94.27;94160.59;5029554;28;20267;-63
2023/04/25 03:13:52;;;;;;;7.45;6.88;;;;;;;11.70;94.33;94167.56;5016782;28;20254;-63
2023/04/25 03:16:19;;;;;;;7.85;7.15;;;;;;;11.88;93.68;94158.16;5013269;28;20232;-63
2023/04/25 03:18:46;;;;;;;8.15;7.45;;;;;;;11.92;93.42;94155.38;5014406;28;20291;-64
2023/04/25 03:21:12;;;;;;;8.32;7.65;;;;;;;11.93;93.42;94146.00;5014379;28;20275;-63
2023/04/25 03:23:41;;;;;;;7.65;6.95;;;;;;;11.97;93.60;94152.59;5015485;28;20212;-64
2023/04/25 03:26:07;;;;;;;7.32;6.82;;;;;;;11.90;93.97;94152.09;5022092;28;20258;-63
2023/04/25 03:28:34;;;;;;;8.00;7.40;;;;;;;12.02;94.38;94144.72;5021889;28;20251;-64
2023/04/25 03:31:00;;;;;;;8.20;7.60;;;;;;;11.95;94.77;94145.94;5029971;28;20227;-63
2023/04/25 03:33:27;;;;;;;7.53;6.80;;;;;;;12.10;93.11;94153.59;5032599;28;20261;-65
2023/04/25 03:35:54;;;;;;;7.30;6.70;;;;;;;12.00;93.33;94151.59;5032581;28;20200;-65
2023/04/25 03:38:21;;;;;;;6.72;6.28;;;;;;;11.98;93.64;94154.22;5031624;28;20602;-64
2023/04/25 03:40:50;;;;;;;7.60;7.00;;;;;;;12.10;93.56;94145.94;5032343;28;20732;-65
2023/04/25 03:43:17;;;;;;;8.60;6.35;;;;;;;12.22;93.07;94150.38;5032094;28;20196;-66
2023/04/25 03:45:43;;;;;;;5.72;5.32;;;;;;;12.32;92.14;94145.59;5032828;28;20234;-65
2023/04/25 03:48:10;;;;;;;6.15;5.65;;;;;;;12.38;90.48;94146.97;5032254;28;20263;-64
2023/04/25 03:50:37;;;;;;;5.72;5.25;;;;;;;12.32;90.72;94144.78;5023535;28;20746;-64
2023/04/25 03:53:03;;;;;;;6.57;5.13;;;;;;;12.24;91.91;94151.09;5032207;28;20235;-64
2023/04/25 03:55:30;;;;;;;6.45;5.93;;;;;;;12.36;92.33;94154.72;5032647;28;20235;-64
2023/04/25 03:57:59;;;;;;;8.57;7.70;;;;;;;12.68;91.64;94144.44;5020662;28;20234;-65
2023/04/25 04:00:26;;;;;;;11.60;8.77;;;;;;;12.90;89.57;94155.88;5023613;28;20235;-65
2023/04/25 04:02:53;;;;;;;10.48;7.97;;;;;;;12.98;88.69;94162.28;5032180;28;20629;-62
2023/04/25 04:05:20;;;;;;;12.90;9.60;;;;;;;13.12;88.06;94160.56;5032486;28;20270;-64
2023/04/25 04:07:46;;;;;;;8.90;8.05;;;;;;;13.25;87.49;94160.75;5015302;28;20261;-64
2023/04/25 04:10:13;;;;;;;8.95;7.28;;;;;;;13.33;87.81;94167.94;5013834;28;20232;-63
2023/04/25 04:12:40;;;;;;;7.35;6.70;;;;;;;13.53;86.53;94158.22;5013970;28;20258;-64
2023/04/25 04:15:09;;;;;;;7.43;6.82;;;;;;;13.74;85.17;94147.63;5013575;28;20240;-64
2023/04/25 04:17:36;;;;;;;7.80;6.82;;;;;;;13.65;84.42;94153.28;5030204;28;20195;-62
2023/04/25 04:20:04;;;;;;;7.30;6.72;;;;;;;13.32;85.87;94151.81;5021169;28;20313;-62
2023/04/25 04:22:30;;;;;;;7.78;7.10;;;;;;;13.14;86.36;94147.75;5014379;28;20584;-63
2023/04/25 04:24:57;;;;;;;8.13;7.53;;;;;;;13.04;87.68;94156.84;5014329;28;20227;-64
2023/04/25 04:27:24;;;;;;;7.88;7.07;;;;;;;13.29;86.75;94146.91;5028704;28;20262;-66
2023/04/25 04:29:52;;;;;;;7.90;7.30;;;;;;;13.28;86.09;94150.34;5032172;28;20235;-65
2023/04/25 04:32:20;;;;;;;6.82;6.32;;;;;;;13.38;87.43;94160.81;5031844;28;20223;-62
2023/04/25 04:34:47;;;;;;;6.50;6.10;;;;;;;13.61;85.99;94153.44;5032240;28;20231;-63
2023/04/25 04:37:14;;;;;;;7.68;6.95;;;;;;;13.63;84.91;94159.28;5039455;28;20195;-63
2023/04/25 04:39:41;;;;;;;8.60;7.70;;;;;;;13.71;84.85;94151.19;5030797;28;20587;-63
2023/04/25 04:42:08;;;;;;;7.60;7.00;;;;;;;13.63;84.78;94161.00;5021855;28;20208;-63
2023/04/25 04:44:35;;;;;;;12.65;11.35;;;;;;;13.61;85.34;94163.66;5031495;28;20212;-64
2023/04/25 04:47:03;;;;;;;8.07;7.47;;;;;;;13.72;84.48;94159.66;5037149;28;20199;-63
2023/04/25 04:49:31;;;;;;;9.10;8.18;;;;;;;13.54;84.87;94167.50;5035936;28;20291;-62
2023/04/25 04:51:59;;;;;;;8.35;7.75;;;;;;;13.37;86.16;94170.22;5031803;28;20227;-63
2023/04/25 04:54:26;;;;;;;8.50;7.78;;;;;;;13.50;85.27;94166.03;5031429;28;20204;-64
2023/04/25 04:56:53;;;;;;;8.02;7.22;;;;;;;13.35;86.12;94176.34;5031922;28;20270;-64
2023/04/25 04:59:20;;;;;;;10.93;8.70;;;;;;;13.36;86.68;94168.59;5030731;28;20250;-63
2023/04/25 05:01:46;;;;;;;9.52;8.80;;;;;;;13.45;86.70;94178.25;5031998;28;20587;-64
2023/04/25 05:04:13;;;;;;;8.82;7.95;;;;;;;13.59;86.29;94180.81;5024289;28;20200;-64
2023/04/25 05:06:41;;;;;;;9.13;8.10;;;;;;;13.39;86.06;94183.72;5031210;28;20200;-63
2023/04/25 05:09:08;;;;;;;9.75;8.77;;;;;;;13.36;86.85;94191.56;5028823;28;20354;-63
2023/04/25 05:11:34;;;;;;;9.13;8.40;;;;;;;13.44;86.91;94184.25;5013135;28;20232;-64
2023/04/25 05:14:01;;;;;;;8.95;8.25;;;;;;;13.58;86.35;94184.28;5013378;28;20236;-63
2023/04/25 05:16:28;;;;;;;8.48;7.63;;;;;;;13.54;86.59;94182.00;5012967;28;20262;-63
2023/04/25 05:18:55;;;;;;;11.68;8.55;;;;;;;13.56;87.09;94196.31;5013324;28;20728;-64
2023/04/25 05:21:22;;;;;;;8.50;7.80;;;;;;;13.62;85.53;94190.81;5013078;28;20235;-65
2023/04/25 05:23:50;;;;;;;8.10;7.45;;;;;;;13.69;85.77;94191.28;5013659;28;20208;-66
2023/04/25 05:26:17;;;;;;;7.95;7.25;;;;;;;13.68;85.46;94191.38;5021468;28;20286;-65
2023/04/25 05:28:43;;;;;;;7.35;6.68;;;;;;;13.72;86.04;94185.19;5016744;28;20262;-63
2023/04/25 05:31:10;;;;;;;6.78;6.18;;;;;;;13.81;85.42;94182.09;5021952;28;20235;-67
2023/04/25 05:33:37;;;;;;;7.28;6.65;;;;;;;13.89;85.41;94182.44;5027350;28;20229;-64
2023/04/25 05:36:04;;;;;;;5.85;5.30;;;;;;;14.04;84.79;94191.75;5021262;28;20199;-65
2023/04/25 05:38:31;;;;;;;5.75;5.30;;;;;;;14.12;83.95;94184.41;5025350;28;20293;-63
2023/04/25 05:40:59;;;;;;;5.82;5.32;;;;;;;14.36;83.15;94171.03;5022428;28;20210;-64
2023/04/25 05:43:26;;;;;;;5.95;5.55;;;;;;;14.54;81.14;94170.75;5030200;28;20200;-65
2023/04/25 05:45:52;;;;;;;5.53;5.03;;;;;;;14.72;80.54;94180.72;5030853;28;20204;-66
2023/04/25 05:48:19;;;;;;;5.90;5.40;;;;;;;14.95;79.73;94175.78;5030322;28;20255;-64
2023/04/25 05:50:46;;;;;;;7.50;6.43;;;;;;;15.21;79.09;94179.19;5019815;28;20259;-67
2023/04/25 05:53:12;;;;;;;9.00;6.43;;;;;;;15.53;77.95;94171.13;5014556;28;20251;-62
2023/04/25 05:55:39;;;;;;;6.43;5.55;;;;;;;15.82;76.80;94176.91;5012865;28;20236;-65
2023/04/25 05:58:07;;;;;;;12.40;5.85;;;;;;;16.11;75.59;94172.31;5015035;28;20251;-64
2023/04/25 06:00:34;;;;;;;8.43;6.47;;;;;;;16.56;73.26;94178.56;5013324;28;20223;-64
2023/04/25 06:03:01;;;;;;;6.05;5.65;;;;;;;16.92;70.67;94180.25;5015351;28;20251;-63
2023/04/25 06:05:28;;;;;;;10.68;5.68;;;;;;;17.49;69.73;94172.59;5013197;28;20211;-63
2023/04/25 06:07:54;;;;;;;7.50;5.90;;;;;;;17.96;68.31;94175.94;5029838;28;20231;-65
2023/04/25 06:10:22;;;;;;;12.45;7.63;;;;;;;18.03;67.98;94179.69;5029795;28;20258;-63
2023/04/25 06:12:49;;;;;;;12.57;7.28;;;;;;;18.10;67.14;94170.53;5017585;28;20195;-65
2023/04/25 06:15:17;;;;;;;11.00;8.45;;;;;;;17.83;66.70;94168.31;5028620;28;20230;-65
2023/04/25 06:17:43;;;;;;;9.38;8.63;;;;;;;17.27;68.35;94181.09;5029876;28;20231;-64
2023/04/25 06:20:11;;;;;;;10.82;8.82;;;;;;;17.02;69.37;94180.41;5030243;28;20241;-65
2023/04/25 06:22:38;;;;;;;9.05;7.93;;;;;;;16.49;70.87;94192.72;5029871;28;20196;-66
2023/04/25 06:25:06;;;;;;;10.32;9.43;;;;;;;15.80;73.45;94189.00;5029863;28;20257;-64
2023/04/25 06:27:33;;;;;;;10.82;9.70;;;;;;;15.22;75.80;94193.63;5025070;28;20271;-65
2023/04/25 06:30:00;;;;;;;10.10;9.13;;;;;;;14.94;76.50;94178.44;5024295;28;20294;-64
2023/04/25 06:32:29;;;;;;;8.88;8.18;;;;;;;15.09;75.71;94187.69;5030415;28;20293;-64
2023/04/25 06:34:56;;;;;;;9.73;8.82;;;;;;;15.82;74.23;94187.16;5030081;28;20211;-65
2023/04/25 06:37:23;;;;;;;11.48;8.88;;;;;;;17.10;70.57;94178.91;5030052;28;20268;-65
2023/04/25 06:39:49;;;;;;;9.52;8.55;;;;;;;17.66;67.17;94186.78;5029625;28;20590;-65
2023/04/25 06:42:16;;;;;;;8.15;6.85;;;;;;;18.42;64.49;94200.69;5027012;28;20660;-66
2023/04/25 06:44:43;;;;;;;8.30;7.60;;;;;;;19.99;61.76;94188.78;5029218;28;20261;-65
2023/04/25 06:47:10;;;;;;;9.20;7.75;;;;;;;22.42;51.81;94181.72;5030033;28;20207;-65
2023/04/25 06:49:38;;;;;;;9.73;8.50;;;;;;;21.60;51.46;94172.03;5029398;28;20230;-64
2023/04/25 06:52:04;;;;;;;10.63;7.13;;;;;;;20.04;55.58;94179.69;5033679;28;20231;-66
2023/04/25 06:54:31;;;;;;;7.88;7.28;;;;;;;18.85;59.39;94193.00;5031840;28;20211;-65
2023/04/25 06:56:58;;;;;;;11.02;7.88;;;;;;;18.55;60.95;94185.94;5032257;28;20200;-65
2023/04/25 06:59:24;;;;;;;8.32;7.50;;;;;;;18.40;61.89;94192.25;5029807;28;20258;-66
2023/04/25 07:01:51;;;;;;;9.40;7.45;;;;;;;18.18;61.61;94185.38;5033516;28;20218;-67
2023/04/25 07:04:18;;;;;;;7.43;6.65;;;;;;;17.71;63.25;94183.88;5033369;28;20220;-65
2023/04/25 07:06:47;;;;;;;8.52;7.55;;;;;;;17.20;65.24;94187.59;5032910;28;20242;-65
2023/04/25 07:09:14;;;;;;;8.95;7.85;;;;;;;16.89;66.84;94195.88;5017810;28;20313;-65
2023/04/25 07:11:40;;;;;;;7.72;7.00;;;;;;;16.50;67.10;94190.06;5024507;28;20236;-65
2023/04/25 07:14:07;;;;;;;10.27;7.22;;;;;;;16.06;69.30;94185.47;5026817;28;20238;-65
2023/04/25 07:16:34;;;;;;;14.30;7.72;;;;;;;15.89;70.50;94196.03;5016468;28;20204;-64
2023/04/25 07:19:00;;;;;;;8.60;7.68;;;;;;;15.81;71.08;94193.19;5024903;28;20199;-64
2023/04/25 07:21:27;;;;;;;14.90;8.55;;;;;;;15.64;71.49;94184.06;5033697;28;20207;-67
2023/04/25 07:23:55;;;;;;;8.25;7.32;;;;;;;15.62;72.68;94181.59;5032614;28;20227;-67
2023/04/25 07:26:22;;;;;;;8.48;7.18;;;;;;;15.61;71.27;94187.63;5033499;28;20242;-66
2023/04/25 07:28:50;;;;;;;7.55;6.95;;;;;;;15.96;70.75;94184.44;4970606;28;20573;-64
2023/04/25 07:31:18;;;;;;;11.77;7.40;;;;;;;16.76;68.50;94180.56;4985396;28;20216;-61
2023/04/25 07:33:44;;;;;;;8.70;6.80;;;;;;;17.18;66.28;94180.94;4982691;28;20572;-61
2023/04/25 07:36:12;;;;;;;10.32;6.65;;;;;;;17.50;65.71;94176.81;4985968;28;20239;-58
2023/04/25 07:38:38;;;;;;;12.75;8.15;;;;;;;17.51;65.39;94175.88;4986266;28;20291;-66
2023/04/25 07:41:07;;;;;;;10.57;7.32;;;;;;;17.64;66.02;94168.06;4985185;28;20353;-68
2023/04/25 07:43:33;;;;;;;10.15;7.57;;;;;;;17.97;65.59;94175.00;4986234;28;20658;-62
2023/04/25 07:46:00;;;;;;;8.43;7.65;;;;;;;18.15;63.54;94178.72;4987373;28;20708;-62
2023/04/25 07:48:27;;;;;;;9.52;6.90;;;;;;;18.39;63.18;94168.28;4987716;28;20255;-63
2023/04/25 07:50:54;;;;;;;10.10;6.70;;;;;;;19.23;61.35;94170.13;4986627;28;20334;-66
2023/04/25 07:53:21;;;;;;;10.93;6.28;;;;;;;20.75;56.70;94169.34;4987302;28;20298;-66
2023/04/25 07:55:47;;;;;;;8.93;6.63;;;;;;;20.88;55.23;94156.97;4986176;28;20295;-65
2023/04/25 07:58:20;;;;;;;9.48;6.38;;;;;;;21.83;53.68;94161.34;4987304;28;20265;-65
2023/04/25 08:00:47;;;;;;;8.00;7.25;;;;;;;21.98;51.76;94150.44;4985170;28;20261;-60
2023/04/25 08:03:14;;;;;;;16.10;7.78;;;;;;;22.17;52.19;94159.91;4986939;28;21673;-66
2023/04/25 08:05:41;;;;;;;9.02;6.90;;;;;;;21.93;52.15;94146.63;4987435;28;20293;-63
2023/04/25 08:08:07;;;;;;;11.48;7.00;;;;;;;21.49;53.97;94148.13;4987081;28;20310;-62
2023/04/25 08:10:34;;;;;;;13.75;6.70;;;;;;;21.29;52.33;94153.28;4981327;28;20366;-62
2023/04/25 08:13:01;;;;;;;15.45;7.22;;;;;;;21.78;52.37;94137.72;4983490;28;20307;-63
2023/04/25 08:15:29;;;;;;;8.70;6.65;;;;;;;24.89;46.20;94134.63;4984882;28;20243;-63
2023/04/25 08:17:56;;;;;;;9.18;6.07;;;;;;;29.94;36.84;94124.38;4986155;28;20281;-61
2023/04/25 08:20:22;;;;;;;14.82;5.65;;;;;;;30.72;32.51;94110.03;4983586;28;20243;-62
2023/04/25 08:22:49;;;;;;;6.65;5.82;;;;;;;29.33;34.51;94124.06;4983831;28;20838;-62
2023/04/25 08:25:16;;;;;;;8.98;5.85;;;;;;;27.62;37.91;94134.03;4983748;28;20231;-65
2023/04/25 08:27:42;;;;;;;13.90;6.47;;;;;;;25.93;41.69;94147.00;4985482;28;20338;-62
2023/04/25 08:30:10;;;;;;;12.02;7.97;;;;;;;24.39;47.04;94143.28;4985657;28;20259;-67
2023/04/25 08:32:38;;;;;;;13.77;8.18;;;;;;;22.87;52.45;94142.88;4984436;28;20277;-66
2023/04/25 08:35:06;;;;;;;6.07;4.95;;;;;;;21.51;53.68;94146.22;4984638;28;20216;-64
2023/04/25 08:37:33;;;;;;;6.00;3.90;;;;;;;20.29;55.59;94152.63;4984781;28;20305;-65
2023/04/25 08:40:00;;;;;;;8.95;5.75;;;;;;;19.69;59.13;94164.63;4983110;28;20314;-64
2023/04/25 08:42:28;;;;;;;7.57;6.88;;;;;;;19.27;62.40;94152.69;4984903;28;20223;-63
2023/04/25 08:44:56;;;;;;;7.53;5.38;;;;;;;19.11;62.71;94147.13;4984271;28;20239;-65
2023/04/25 08:47:23;;;;;;;5.20;4.80;;;;;;;19.78;60.93;94154.50;4985409;28;20333;-59
2023/04/25 08:49:54;;;;;;;4.90;4.50;;;;;;;22.33;53.84;94139.38;4983647;28;21258;-64
2023/04/25 08:52:23;;;;;;;6.63;4.57;;;;;;;23.61;48.92;94142.53;4984702;28;20231;-67
2023/04/25 08:54:50;;;;;;;4.90;2.88;;;;;;;27.78;41.57;94118.19;4983906;28;20741;-64
2023/04/25 08:57:18;;;;;;;3.58;3.20;;;;;;;29.68;35.69;94115.34;4986162;28;20232;-66
2023/04/25 08:59:46;;;;;;;5.88;3.45;;;;;;;28.46;38.03;94110.28;4984762;28;20291;-61
2023/04/25 09:02:16;;;;;;;5.10;4.70;;;;;;;27.76;39.64;94114.94;4984490;28;20989;-64
2023/04/25 09:04:44;;;;;;;8.45;3.95;;;;;;;29.89;36.28;94113.66;4984360;28;20240;-66
2023/04/25 09:07:15;;;;;;;5.22;4.00;;;;;;;31.37;33.98;94113.84;4959833;28;20299;-63
2023/04/25 09:09:59;;;;;;;3.22;3.03;;;;;;;30.37;34.27;94107.50;5072508;27;20543;-62
2023/04/25 09:12:27;;;;;;;3.63;3.33;;;;;;;29.56;35.88;94100.31;5073694;28;20215;-64
2023/04/25 09:15:04;;;;;;;5.30;4.35;;;;;;;30.14;34.25;94104.34;5073082;28;20205;-69
2023/04/25 09:17:30;;;;;;;4.43;4.13;;;;;;;30.77;34.01;94097.16;5072955;28;20677;-67
2023/04/25 09:20:07;;;;;;;3.28;2.97;;;;;;;29.69;34.08;94092.56;5073508;28;20304;-64
2023/04/25 09:22:33;;;;;;;3.53;3.05;;;;;;;28.08;36.54;94098.13;5073456;27;20208;-69
2023/04/25 09:25:03;;;;;;;3.13;2.83;;;;;;;26.94;39.43;94103.53;5073952;28;20287;-65
2023/04/25 09:27:30;;;;;;;4.68;3.45;;;;;;;27.16;39.89;94094.13;5071155;27;20345;-64
2023/04/25 09:29:59;;;;;;;3.75;3.38;;;;;;;27.67;38.34;94089.13;5073396;28;20915;-62
2023/04/25 09:32:26;;;;;;;3.40;3.10;;;;;;;27.88;35.46;94088.41;5070364;28;20228;-62
2023/04/25 09:34:55;;;;;;;2.80;2.65;;;;;;;27.59;36.66;94076.94;5073222;28;20323;-60
2023/04/25 09:37:23;;;;;;;2.50;2.30;;;;;;;27.29;37.11;94083.06;5073038;28;20220;-65
2023/04/25 09:39:52;;;;;;;2.90;2.63;;;;;;;27.06;38.49;94091.75;5072521;28;20658;-64
2023/04/25 09:42:23;;;;;;;2.28;2.17;;;;;;;27.00;37.63;94082.00;5072051;28;20361;-62
2023/04/25 09:44:53;;;;;;;3.65;2.72;;;;;;;27.08;37.05;94079.34;5072660;28;20718;-66
2023/04/25 09:47:21;;;;;;;3.33;2.80;;;;;;;26.20;40.01;94107.53;5073038;28;20239;-67
2023/04/25 09:49:48;;;;;;;2.50;2.30;;;;;;;25.02;42.01;94103.78;5067858;28;20817;-64
2023/04/25 09:52:17;;;;;;;2.65;2.45;;;;;;;24.03;43.39;94095.88;5051825;28;20290;-62
2023/04/25 09:54:44;;;;;;;2.70;2.50;;;;;;;23.35;45.78;94088.03;5051262;28;20290;-64
2023/04/25 09:57:12;;;;;;;2.97;2.78;;;;;;;23.47;46.18;94098.97;5051748;28;20206;-63
2023/04/25 09:59:44;;;;;;;9.07;5.70;;;;;;;23.48;46.10;94100.59;5050733;28;20233;-66
2023/04/25 10:02:12;;;;;;;3.15;2.80;;;;;;;23.57;45.02;94084.13;5052620;28;20247;-67
2023/04/25 10:04:39;;;;;;;1.90;1.80;;;;;;;23.88;44.69;94100.03;5050250;28;20208;-61
2023/04/25 10:07:08;;;;;;;4.28;2.10;;;;;;;24.03;43.91;94095.88;5051027;28;20300;-63
2023/04/25 10:09:39;;;;;;;7.35;2.15;;;;;;;24.43;44.29;94094.44;5050395;28;20302;-62
2023/04/25 10:12:06;;;;;;;2.90;2.13;;;;;;;24.37;42.89;94074.28;5050117;28;21751;-62
2023/04/25 10:14:34;;;;;;;1.95;1.85;;;;;;;24.04;43.57;94092.31;5051234;28;20208;-67
2023/04/25 10:17:02;;;;;;;4.05;2.45;;;;;;;23.44;44.72;94095.88;5050679;28;20278;-67
2023/04/25 10:19:30;;;;;;;2.00;1.90;;;;;;;23.06;44.35;94106.44;5046524;28;20686;-68
2023/04/25 10:22:04;;;;;;;3.03;2.33;;;;;;;22.68;45.65;94111.91;5038717;28;20209;-60
2023/04/25 10:24:31;;;;;;;2.28;2.03;;;;;;;22.77;46.51;94103.25;5036497;28;20212;-64
2023/04/25 10:26:58;;;;;;;2.92;1.77;;;;;;;23.29;45.46;94087.81;5037729;28;20225;-63
2023/04/25 10:29:26;;;;;;;2.00;1.45;;;;;;;23.90;41.14;94086.91;5037029;28;20279;-66
2023/04/25 10:31:53;;;;;;;1.90;1.80;;;;;;;24.15;41.97;94098.19;5037270;28;20296;-65
2023/04/25 10:34:26;;;;;;;4.10;1.88;;;;;;;23.88;41.89;94100.03;5036311;28;20296;-64
2023/04/25 10:36:53;;;;;;;4.00;1.40;;;;;;;23.45;41.73;94113.88;5036457;28;20206;-65
2023/04/25 10:39:24;;;;;;;2.17;1.58;;;;;;;23.06;42.91;94101.25;5037338;28;20830;-65
2023/04/25 10:41:57;;;;;;;1.63;1.52;;;;;;;22.79;43.95;94109.13;5036811;28;20938;-62
2023/04/25 10:44:26;;;;;;;3.50;1.23;;;;;;;22.74;43.65;94101.78;5036623;28;20204;-62
2023/04/25 10:46:55;;;;;;;4.63;2.90;;;;;;;22.94;44.30;94093.88;5035840;28;20747;-63
2023/04/25 10:49:35;;;;;;;4.70;1.83;;;;;;;23.32;43.96;94095.28;5038122;28;20685;-66
2023/04/25 10:52:27;;;;;;;2.95;2.53;;;;;;;23.47;44.26;94088.59;5036642;28;20288;-65
2023/04/25 10:54:56;;;;;;;6.63;2.10;;;;;;;23.34;43.45;94075.22;5036644;28;20904;-67
2023/04/25 10:57:37;;;;;;;2.47;1.92;;;;;;;22.95;43.74;94083.38;5036722;28;20210;-64
2023/04/25 11:00:11;;;;;;;2.47;1.83;;;;;;;22.74;44.43;94080.25;5036895;28;20281;-67
2023/04/25 11:02:42;;;;;;;7.25;2.05;;;;;;;22.54;45.38;94084.75;5036575;28;20209;-63
2023/04/25 11:05:11;;;;;;;4.32;1.40;;;;;;;22.43;43.49;94082.38;5037195;28;20280;-65
2023/04/25 11:07:51;;;;;;;1.75;1.40;;;;;;;22.39;44.48;94079.28;5035366;28;20205;-63
2023/04/25 11:10:19;;;;;;;0.93;0.93;;;;;;;22.13;41.35;94080.94;5036272;28;20226;-65
2023/04/25 11:12:46;;;;;;;0.85;0.85;;;;;;;21.91;42.07;94065.75;5036344;28;21949;-63
2023/04/25 11:15:12;;;;;;;1.00;1.00;;;;;;;21.66;41.90;94073.22;5037344;28;20233;-62
2023/04/25 11:17:40;;;;;;;1.27;1.17;;;;;;;21.18;43.05;94064.78;5038602;28;20292;-64
2023/04/25 11:20:11;;;;;;;2.55;1.30;;;;;;;21.08;43.11;94072.53;5036173;28;20229;-65
2023/04/25 11:22:40;;;;;;;1.33;1.23;;;;;;;20.93;44.17;94085.06;5036125;28;20199;-60
2023/04/25 11:25:08;;;;;;;1.17;1.17;;;;;;;20.83;46.37;94084.25;5036550;28;20211;-64
2023/04/25 11:27:35;;;;;;;3.75;1.50;;;;;;;20.65;47.62;94075.56;5035558;28;20740;-65
2023/04/25 11:30:13;;;;;;;1.50;1.40;;;;;;;20.52;46.25;94072.44;5035039;28;20231;-66
2023/04/25 11:32:41;;;;;;;1.17;1.17;;;;;;;20.44;47.33;94082.63;5036633;28;22680;-67
2023/04/25 11:35:08;;;;;;;3.40;3.17;;;;;;;20.33;47.62;94089.47;5036662;28;20202;-68